Terminal Aerodrome Forecast
Issued by NWS Twin Cities, MN

Home | Current Version | Previous Version | Text Only | Print | Product List | Glossary Off
Versions: 1 2 3 4 5 6 7 8 9 10 11 12 13 14 15 16 17 18 19 20 21 22 23 24 25 26 27 28 29 30 31 32

000
FTUS43 KMPX 300500
TAFMSP
TAF
KMSP 300520Z 3006/3112 36004KT 6SM -SHRA BR OVC006
      TEMPO 3006/3009 SCT006 BKN025
     FM300900 35004KT 5SM BR OVC004
     FM301500 34005KT P6SM BKN010 OVC020
     FM301800 34005KT P6SM BKN025
     FM302200 VRB03KT P6SM SCT025=

USA.gov is the U.S. government's official web portal to all federal, state and local government web resources and services.